LPE2024 SPTU-SPJC
Flight info
| Callsign | LPE2024 |
|---|---|
| Flight time | N/A |
| Altitude | 36000 |
| Route | PUMSA UT332 UDENI UT321 PEROV |
| Aircraft | A319/M-SDE3FGHIRWY/LB1 |
Departure
| Time | N/A |
|---|---|
| Airport | Padre Aldamiz International Airport (SPTU) |
Arrival
| Time | 2026-04-28 01:14 |
|---|---|
| Airport | Jorge Chávez International Airport (SPJC) |
| Time | Latitude | Longitude | Altitude | Speed | Heading |
|---|---|---|---|---|---|
| 2026-04-28 00:29 | -12.66388 | -73.05157 | 38402 ft | 431 kts | 275° |
| 2026-04-28 00:30 | -12.66205 | -73.08204 | 38407 ft | 431 kts | 275° |
| 2026-04-28 00:30 | -12.65838 | -73.14294 | 38426 ft | 431 kts | 275° |
| 2026-04-28 00:31 | -12.65468 | -73.20422 | 38411 ft | 431 kts | 275° |
| 2026-04-28 00:31 | -12.65098 | -73.26526 | 38401 ft | 431 kts | 275° |
| 2026-04-28 00:32 | -12.64726 | -73.32631 | 38417 ft | 431 kts | 275° |
| 2026-04-28 00:32 | -12.64352 | -73.38750 | 38448 ft | 431 kts | 275° |
| 2026-04-28 00:33 | -12.63976 | -73.44873 | 38477 ft | 430 kts | 275° |
| 2026-04-28 00:33 | -12.63600 | -73.50963 | 38496 ft | 430 kts | 275° |
| 2026-04-28 00:34 | -12.63225 | -73.57050 | 38488 ft | 430 kts | 275° |
| 2026-04-28 00:34 | -12.62844 | -73.63168 | 38453 ft | 430 kts | 275° |
| 2026-04-28 00:35 | -12.62466 | -73.69268 | 38396 ft | 430 kts | 275° |
| 2026-04-28 00:35 | -12.62085 | -73.75358 | 38320 ft | 430 kts | 276° |
| 2026-04-28 00:36 | -12.61702 | -73.81437 | 38332 ft | 430 kts | 276° |
| 2026-04-28 00:36 | -12.61316 | -73.87562 | 38398 ft | 429 kts | 275° |
| 2026-04-28 00:37 | -12.60932 | -73.93625 | 38445 ft | 429 kts | 275° |
| 2026-04-28 00:37 | -12.60549 | -73.99708 | 38518 ft | 428 kts | 275° |
| 2026-04-28 00:38 | -12.60163 | -74.05782 | 38577 ft | 429 kts | 276° |
| 2026-04-28 00:38 | -12.59774 | -74.11877 | 38600 ft | 429 kts | 276° |
| 2026-04-28 00:39 | -12.59384 | -74.17966 | 38670 ft | 429 kts | 276° |
| 2026-04-28 00:39 | -12.58991 | -74.24057 | 38738 ft | 429 kts | 276° |
| 2026-04-28 00:40 | -12.58598 | -74.30138 | 38767 ft | 429 kts | 276° |
| 2026-04-28 00:40 | -12.58206 | -74.36191 | 38795 ft | 429 kts | 276° |
| 2026-04-28 00:41 | -12.57810 | -74.42281 | 38782 ft | 428 kts | 276° |
| 2026-04-28 00:41 | -12.57414 | -74.48370 | 38808 ft | 428 kts | 276° |
| 2026-04-28 00:42 | -12.57015 | -74.54447 | 38835 ft | 428 kts | 276° |
| 2026-04-28 00:42 | -12.56617 | -74.60503 | 38879 ft | 428 kts | 276° |
| 2026-04-28 00:43 | -12.56214 | -74.66594 | 38890 ft | 429 kts | 276° |
| 2026-04-28 00:43 | -12.55813 | -74.72655 | 38898 ft | 429 kts | 276° |
| 2026-04-28 00:44 | -12.55410 | -74.78738 | 38909 ft | 429 kts | 276° |
| 2026-04-28 00:44 | -12.55005 | -74.84818 | 38935 ft | 428 kts | 276° |
| 2026-04-28 00:45 | -12.54599 | -74.90891 | 38947 ft | 428 kts | 276° |
| 2026-04-28 00:45 | -12.54192 | -74.96957 | 38981 ft | 429 kts | 276° |
| 2026-04-28 00:46 | -12.53783 | -75.03009 | 38998 ft | 429 kts | 276° |
| 2026-04-28 00:46 | -12.53373 | -75.09078 | 38996 ft | 428 kts | 276° |
| 2026-04-28 00:47 | -12.52960 | -75.15167 | 38984 ft | 428 kts | 276° |
| 2026-04-28 00:47 | -12.52548 | -75.21223 | 38975 ft | 429 kts | 276° |
| 2026-04-28 00:48 | -12.51976 | -75.27304 | 38968 ft | 428 kts | 280° |
| 2026-04-28 00:48 | -12.50825 | -75.33228 | 38979 ft | 427 kts | 284° |
| 2026-04-28 00:49 | -12.49478 | -75.39140 | 38982 ft | 427 kts | 285° |
| 2026-04-28 00:49 | -12.48131 | -75.45042 | 38991 ft | 428 kts | 284° |
| 2026-04-28 00:50 | -12.46780 | -75.50977 | 39006 ft | 427 kts | 285° |
| 2026-04-28 00:50 | -12.45436 | -75.56870 | 39004 ft | 427 kts | 285° |
| 2026-04-28 00:51 | -12.44092 | -75.62762 | 38996 ft | 427 kts | 284° |
| 2026-04-28 00:51 | -12.43421 | -75.65702 | 38663 ft | 425 kts | 285° |
| 2026-04-28 00:51 | -12.42743 | -75.68665 | 37691 ft | 431 kts | 284° |
| 2026-04-28 00:51 | -12.42051 | -75.71688 | 36524 ft | 440 kts | 284° |
| 2026-04-28 00:52 | -12.41359 | -75.74704 | 35499 ft | 445 kts | 284° |
| 2026-04-28 00:52 | -12.40655 | -75.77778 | 34569 ft | 448 kts | 284° |
| 2026-04-28 00:52 | -12.39944 | -75.80891 | 33632 ft | 450 kts | 284° |
| 2026-04-28 00:52 | -12.39230 | -75.84011 | 32764 ft | 451 kts | 284° |
| 2026-04-28 00:53 | -12.38518 | -75.87121 | 31950 ft | 451 kts | 284° |
| 2026-04-28 00:53 | -12.37801 | -75.90248 | 31041 ft | 454 kts | 284° |
| 2026-04-28 00:53 | -12.37089 | -75.93346 | 30226 ft | 454 kts | 283° |
| 2026-04-28 00:53 | -12.36374 | -75.96465 | 29808 ft | 445 kts | 283° |
| 2026-04-28 00:54 | -12.35673 | -75.99517 | 29297 ft | 439 kts | 283° |
| 2026-04-28 00:54 | -12.34981 | -76.02529 | 28647 ft | 436 kts | 283° |
| 2026-04-28 00:54 | -12.34304 | -76.05527 | 28083 ft | 432 kts | 283° |
| 2026-04-28 00:54 | -12.33655 | -76.08531 | 27539 ft | 427 kts | 282° |
| 2026-04-28 00:55 | -12.33030 | -76.11459 | 27021 ft | 422 kts | 282° |
| 2026-04-28 00:55 | -12.32406 | -76.14374 | 26484 ft | 418 kts | 282° |
| 2026-04-28 00:55 | -12.31791 | -76.17231 | 25958 ft | 414 kts | 282° |
| 2026-04-28 00:55 | -12.31178 | -76.20080 | 25425 ft | 411 kts | 283° |
| 2026-04-28 00:56 | -12.30561 | -76.22932 | 24895 ft | 408 kts | 283° |
| 2026-04-28 00:56 | -12.29953 | -76.25746 | 24369 ft | 405 kts | 283° |
| 2026-04-28 00:56 | -12.29351 | -76.28540 | 23880 ft | 401 kts | 283° |
| 2026-04-28 00:56 | -12.28757 | -76.31313 | 23388 ft | 398 kts | 283° |
| 2026-04-28 00:57 | -12.28165 | -76.34067 | 22904 ft | 395 kts | 283° |
| 2026-04-28 00:57 | -12.27578 | -76.36796 | 22402 ft | 393 kts | 283° |
| 2026-04-28 00:57 | -12.26996 | -76.39500 | 21924 ft | 391 kts | 283° |
| 2026-04-28 00:57 | -12.26413 | -76.42209 | 21462 ft | 390 kts | 283° |
| 2026-04-28 00:58 | -12.25828 | -76.44923 | 20967 ft | 389 kts | 283° |
| 2026-04-28 00:58 | -12.25252 | -76.47592 | 20502 ft | 387 kts | 283° |
| 2026-04-28 00:58 | -12.24668 | -76.50288 | 20021 ft | 386 kts | 283° |
| 2026-04-28 00:58 | -12.24095 | -76.52937 | 19561 ft | 384 kts | 283° |
| 2026-04-28 00:59 | -12.23519 | -76.55595 | 19069 ft | 383 kts | 283° |
| 2026-04-28 00:59 | -12.22943 | -76.58252 | 18567 ft | 382 kts | 283° |
| 2026-04-28 00:59 | -12.22369 | -76.60895 | 18140 ft | 376 kts | 283° |
| 2026-04-28 00:59 | -12.21821 | -76.63431 | 17896 ft | 359 kts | 283° |
| 2026-04-28 01:00 | -12.21288 | -76.65884 | 17606 ft | 350 kts | 284° |
| 2026-04-28 01:00 | -12.20762 | -76.68284 | 17279 ft | 346 kts | 284° |
| 2026-04-28 01:00 | -12.20239 | -76.70669 | 16945 ft | 342 kts | 283° |
| 2026-04-28 01:00 | -12.19725 | -76.73016 | 16654 ft | 338 kts | 283° |
| 2026-04-28 01:01 | -12.19210 | -76.75360 | 16360 ft | 333 kts | 284° |
| 2026-04-28 01:01 | -12.18705 | -76.77665 | 16036 ft | 330 kts | 283° |
| 2026-04-28 01:01 | -12.18207 | -76.79934 | 15686 ft | 329 kts | 283° |
| 2026-04-28 01:01 | -12.17710 | -76.82194 | 15403 ft | 326 kts | 283° |
| 2026-04-28 01:02 | -12.17216 | -76.84447 | 15033 ft | 326 kts | 283° |
| 2026-04-28 01:02 | -12.16718 | -76.86712 | 14735 ft | 324 kts | 283° |
| 2026-04-28 01:02 | -12.16227 | -76.88945 | 14398 ft | 322 kts | 283° |
| 2026-04-28 01:02 | -12.15737 | -76.91176 | 14031 ft | 321 kts | 283° |
| 2026-04-28 01:03 | -12.15250 | -76.93391 | 13726 ft | 319 kts | 283° |
| 2026-04-28 01:03 | -12.14762 | -76.95619 | 13455 ft | 318 kts | 282° |
| 2026-04-28 01:03 | -12.14279 | -76.97826 | 13106 ft | 317 kts | 282° |
| 2026-04-28 01:03 | -12.13803 | -77.00008 | 12770 ft | 315 kts | 282° |
| 2026-04-28 01:04 | -12.13326 | -77.02193 | 12422 ft | 311 kts | 282° |
| 2026-04-28 01:04 | -12.12863 | -77.04307 | 11935 ft | 309 kts | 282° |
| 2026-04-28 01:04 | -12.12395 | -77.06444 | 11391 ft | 307 kts | 282° |
| 2026-04-28 01:04 | -12.11933 | -77.08552 | 10866 ft | 303 kts | 283° |
| 2026-04-28 01:05 | -12.11478 | -77.10629 | 10339 ft | 301 kts | 283° |
| 2026-04-28 01:05 | -12.11022 | -77.12708 | 9799 ft | 299 kts | 283° |
| 2026-04-28 01:05 | -12.10567 | -77.14780 | 9257 ft | 296 kts | 283° |
| 2026-04-28 01:05 | -12.10125 | -77.16791 | 8892 ft | 288 kts | 283° |
| 2026-04-28 01:06 | -12.09521 | -77.18695 | 8642 ft | 274 kts | 302° |
| 2026-04-28 01:06 | -12.08183 | -77.19984 | 8284 ft | 265 kts | 334° |
| 2026-04-28 01:06 | -12.06504 | -77.20737 | 7867 ft | 262 kts | 337° |
| 2026-04-28 01:06 | -12.04851 | -77.21489 | 7431 ft | 260 kts | 336° |
| 2026-04-28 01:07 | -12.03207 | -77.22272 | 6991 ft | 258 kts | 335° |
| 2026-04-28 01:07 | -12.01591 | -77.23061 | 6556 ft | 256 kts | 334° |
| 2026-04-28 01:07 | -12.00008 | -77.23871 | 6125 ft | 254 kts | 334° |
| 2026-04-28 01:07 | -11.98940 | -77.24429 | 5847 ft | 252 kts | 333° |
| 2026-04-28 01:08 | -11.96877 | -77.25510 | 5277 ft | 250 kts | 334° |
| 2026-04-28 01:08 | -11.95322 | -77.26323 | 4834 ft | 249 kts | 334° |
| 2026-04-28 01:08 | -11.93789 | -77.27125 | 4382 ft | 248 kts | 334° |
| 2026-04-28 01:08 | -11.92181 | -77.27722 | 3930 ft | 245 kts | 356° |
| 2026-04-28 01:09 | -11.90546 | -77.27441 | 3699 ft | 232 kts | 28° |
| 2026-04-28 01:09 | -11.89345 | -77.26423 | 3527 ft | 221 kts | 51° |
| 2026-04-28 01:09 | -11.88436 | -77.25185 | 3380 ft | 214 kts | 59° |
| 2026-04-28 01:09 | -11.87985 | -77.23784 | 3220 ft | 209 kts | 91° |
| 2026-04-28 01:10 | -11.88317 | -77.22362 | 3016 ft | 207 kts | 111° |
| 2026-04-28 01:10 | -11.88897 | -77.21033 | 2812 ft | 202 kts | 115° |
| 2026-04-28 01:10 | -11.89497 | -77.19769 | 2715 ft | 189 kts | 115° |
| 2026-04-28 01:10 | -11.90194 | -77.18678 | 2467 ft | 184 kts | 137° |
| 2026-04-28 01:11 | -11.91250 | -77.17977 | 2218 ft | 175 kts | 152° |
| 2026-04-28 01:11 | -11.92306 | -77.17474 | 2005 ft | 161 kts | 155° |
| 2026-04-28 01:11 | -11.93286 | -77.17023 | 1791 ft | 149 kts | 154° |
| 2026-04-28 01:11 | -11.94203 | -77.16581 | 1591 ft | 139 kts | 154° |
| 2026-04-28 01:12 | -11.95048 | -77.16164 | 1413 ft | 131 kts | 153° |
| 2026-04-28 01:12 | -11.95865 | -77.15756 | 1255 ft | 130 kts | 154° |
| 2026-04-28 01:12 | -11.96672 | -77.15356 | 1095 ft | 128 kts | 154° |
| 2026-04-28 01:12 | -11.97482 | -77.14954 | 930 ft | 127 kts | 154° |
| 2026-04-28 01:13 | -11.98275 | -77.14562 | 756 ft | 127 kts | 154° |
| 2026-04-28 01:13 | -11.99860 | -77.13776 | 426 ft | 125 kts | 155° |
| 2026-04-28 01:13 | -12.00648 | -77.13387 | 258 ft | 125 kts | 154° |
| 2026-04-28 01:14 | -12.01440 | -77.12995 | 130 ft | 123 kts | 155° |
| 2026-04-28 01:14 | -12.02097 | -77.12673 | 124 ft | 81 kts | 155° |
| 2026-04-28 01:14 | -12.02450 | -77.12499 | 124 ft | 31 kts | 154° |
| 2026-04-28 01:14 | -12.02622 | -77.12407 | 124 ft | 26 kts | 144° |
| 2026-04-28 01:15 | -12.02725 | -77.12294 | 124 ft | 12 kts | 128° |
| 2026-04-28 01:15 | -12.02761 | -77.12244 | 124 ft | 9 kts | 120° |
| 2026-04-28 01:15 | -12.02735 | -77.12203 | 124 ft | 8 kts | 16° |
| 2026-04-28 01:15 | -12.02668 | -77.12208 | 124 ft | 10 kts | 330° |
| 2026-04-28 01:16 | -12.02603 | -77.12244 | 124 ft | 10 kts | 335° |
| 2026-04-28 01:16 | -12.02534 | -77.12277 | 124 ft | 11 kts | 334° |
| 2026-04-28 01:16 | -12.02464 | -77.12312 | 124 ft | 11 kts | 334° |
| 2026-04-28 01:16 | -12.02392 | -77.12347 | 124 ft | 11 kts | 334° |
| 2026-04-28 01:17 | -12.02326 | -77.12380 | 124 ft | 10 kts | 334° |
| 2026-04-28 01:17 | -12.02258 | -77.12413 | 124 ft | 10 kts | 336° |
| 2026-04-28 01:17 | -12.02196 | -77.12386 | 124 ft | 12 kts | 64° |
| 2026-04-28 01:17 | -12.02153 | -77.12294 | 124 ft | 16 kts | 64° |
| 2026-04-28 01:18 | -12.02100 | -77.12182 | 124 ft | 17 kts | 65° |
| 2026-04-28 01:18 | -12.02048 | -77.12072 | 124 ft | 16 kts | 64° |
| 2026-04-28 01:18 | -12.01998 | -77.11966 | 125 ft | 16 kts | 64° |
| 2026-04-28 01:18 | -12.01950 | -77.11865 | 125 ft | 15 kts | 64° |
| 2026-04-28 01:19 | -12.01910 | -77.11776 | 125 ft | 12 kts | 79° |
| 2026-04-28 01:19 | -12.01965 | -77.11716 | 125 ft | 14 kts | 155° |
| 2026-04-28 01:19 | -12.02069 | -77.11665 | 125 ft | 18 kts | 152° |
| 2026-04-28 01:19 | -12.02194 | -77.11603 | 125 ft | 20 kts | 153° |
| 2026-04-28 01:20 | -12.02279 | -77.11562 | 125 ft | 9 kts | 162° |
| 2026-04-28 01:20 | -12.02328 | -77.11594 | 125 ft | 9 kts | 243° |
| 2026-04-28 01:20 | -12.02357 | -77.11655 | 125 ft | 9 kts | 244° |
| 2026-04-28 01:20 | -12.02386 | -77.11716 | 125 ft | 9 kts | 249° |
| 2026-04-28 01:21 | -12.02400 | -77.11781 | 125 ft | 6 kts | 245° |
| 2026-04-28 01:21 | -12.02414 | -77.11809 | 124 ft | 3 kts | 245° |
| 2026-04-28 01:21 | -12.02419 | -77.11819 | 124 ft | 1 kts | 245° |